sensor_id;sensor_type;location;lat;lon;timestamp;P1;durP1;ratioP1;P2;durP2;ratioP2
64353;SDS011;50681;53.334;-6.536;2023-07-31T00:00:11;5.77;;;1.87;;
64353;SDS011;50681;53.334;-6.536;2023-07-31T00:02:37;8.77;;;2.20;;
64353;SDS011;50681;53.334;-6.536;2023-07-31T00:05:03;11.65;;;2.13;;
64353;SDS011;50681;53.334;-6.536;2023-07-31T00:07:29;4.63;;;1.85;;
64353;SDS011;50681;53.334;-6.536;2023-07-31T00:09:54;4.03;;;1.43;;
64353;SDS011;50681;53.334;-6.536;2023-07-31T00:12:21;7.63;;;2.28;;
64353;SDS011;50681;53.334;-6.536;2023-07-31T00:14:48;7.07;;;2.03;;
64353;SDS011;50681;53.334;-6.536;2023-07-31T00:20:35;6.43;;;2.30;;
64353;SDS011;50681;53.334;-6.536;2023-07-31T00:23:00;12.20;;;2.90;;
64353;SDS011;50681;53.334;-6.536;2023-07-31T00:25:27;6.18;;;1.90;;
64353;SDS011;50681;53.334;-6.536;2023-07-31T00:27:52;8.90;;;2.37;;
64353;SDS011;50681;53.334;-6.536;2023-07-31T00:30:18;7.80;;;2.10;;
64353;SDS011;50681;53.334;-6.536;2023-07-31T00:32:43;9.10;;;2.53;;
64353;SDS011;50681;53.334;-6.536;2023-07-31T00:35:09;4.77;;;2.20;;
64353;SDS011;50681;53.334;-6.536;2023-07-31T00:37:34;5.53;;;2.10;;
64353;SDS011;50681;53.334;-6.536;2023-07-31T00:39:59;6.73;;;2.30;;
64353;SDS011;50681;53.334;-6.536;2023-07-31T00:42:25;8.48;;;2.40;;
64353;SDS011;50681;53.334;-6.536;2023-07-31T00:44:50;6.50;;;2.43;;
64353;SDS011;50681;53.334;-6.536;2023-07-31T00:47:16;7.30;;;2.13;;
64353;SDS011;50681;53.334;-6.536;2023-07-31T00:49:41;5.87;;;2.10;;
64353;SDS011;50681;53.334;-6.536;2023-07-31T00:52:09;6.05;;;2.22;;
64353;SDS011;50681;53.334;-6.536;2023-07-31T00:57:00;7.35;;;1.73;;
64353;SDS011;50681;53.334;-6.536;2023-07-31T00:59:26;7.18;;;2.03;;
64353;SDS011;50681;53.334;-6.536;2023-07-31T01:01:51;3.50;;;1.57;;
64353;SDS011;50681;53.334;-6.536;2023-07-31T01:04:17;6.65;;;1.63;;
64353;SDS011;50681;53.334;-6.536;2023-07-31T01:06:56;4.18;;;1.55;;
64353;SDS011;50681;53.334;-6.536;2023-07-31T01:12:04;8.32;;;2.08;;
64353;SDS011;50681;53.334;-6.536;2023-07-31T01:14:32;6.93;;;1.85;;
64353;SDS011;50681;53.334;-6.536;2023-07-31T01:16:57;8.57;;;1.90;;
64353;SDS011;50681;53.334;-6.536;2023-07-31T01:19:24;4.28;;;1.45;;
64353;SDS011;50681;53.334;-6.536;2023-07-31T01:27:20;11.13;;;1.75;;
64353;SDS011;50681;53.334;-6.536;2023-07-31T01:29:55;5.82;;;1.70;;
64353;SDS011;50681;53.334;-6.536;2023-07-31T01:32:24;6.22;;;1.95;;
64353;SDS011;50681;53.334;-6.536;2023-07-31T01:34:54;8.00;;;1.67;;
64353;SDS011;50681;53.334;-6.536;2023-07-31T01:37:24;8.80;;;1.48;;
64353;SDS011;50681;53.334;-6.536;2023-07-31T01:39:55;2.55;;;1.23;;
64353;SDS011;50681;53.334;-6.536;2023-07-31T01:42:21;4.00;;;1.90;;
64353;SDS011;50681;53.334;-6.536;2023-07-31T01:44:46;3.72;;;1.42;;
64353;SDS011;50681;53.334;-6.536;2023-07-31T01:47:12;5.77;;;1.63;;
64353;SDS011;50681;53.334;-6.536;2023-07-31T01:49:37;2.47;;;1.20;;
64353;SDS011;50681;53.334;-6.536;2023-07-31T01:52:02;4.90;;;1.40;;
64353;SDS011;50681;53.334;-6.536;2023-07-31T01:54:28;5.07;;;1.33;;
64353;SDS011;50681;53.334;-6.536;2023-07-31T01:56:54;3.63;;;1.37;;
64353;SDS011;50681;53.334;-6.536;2023-07-31T01:59:19;5.03;;;1.60;;
64353;SDS011;50681;53.334;-6.536;2023-07-31T02:01:44;7.17;;;1.37;;
64353;SDS011;50681;53.334;-6.536;2023-07-31T02:04:10;7.30;;;1.93;;
64353;SDS011;50681;53.334;-6.536;2023-07-31T02:06:35;4.77;;;1.63;;
64353;SDS011;50681;53.334;-6.536;2023-07-31T02:09:01;6.18;;;1.33;;
64353;SDS011;50681;53.334;-6.536;2023-07-31T02:11:26;4.00;;;1.45;;
64353;SDS011;50681;53.334;-6.536;2023-07-31T02:13:52;3.43;;;1.03;;
64353;SDS011;50681;53.334;-6.536;2023-07-31T02:16:17;4.97;;;1.57;;
64353;SDS011;50681;53.334;-6.536;2023-07-31T02:18:43;6.70;;;1.20;;
64353;SDS011;50681;53.334;-6.536;2023-07-31T02:21:08;4.03;;;1.20;;
64353;SDS011;50681;53.334;-6.536;2023-07-31T02:23:34;3.43;;;1.43;;
64353;SDS011;50681;53.334;-6.536;2023-07-31T02:25:59;6.27;;;1.53;;
64353;SDS011;50681;53.334;-6.536;2023-07-31T02:28:24;4.10;;;1.23;;
64353;SDS011;50681;53.334;-6.536;2023-07-31T02:30:50;3.83;;;1.33;;
64353;SDS011;50681;53.334;-6.536;2023-07-31T02:33:17;9.30;;;1.60;;
64353;SDS011;50681;53.334;-6.536;2023-07-31T02:35:42;2.95;;;1.08;;
64353;SDS011;50681;53.334;-6.536;2023-07-31T02:38:08;5.20;;;1.23;;
64353;SDS011;50681;53.334;-6.536;2023-07-31T02:40:33;3.53;;;1.13;;
64353;SDS011;50681;53.334;-6.536;2023-07-31T02:42:58;5.73;;;1.70;;
64353;SDS011;50681;53.334;-6.536;2023-07-31T02:45:24;12.40;;;1.40;;
64353;SDS011;50681;53.334;-6.536;2023-07-31T02:47:49;3.37;;;1.17;;
64353;SDS011;50681;53.334;-6.536;2023-07-31T02:50:15;4.57;;;1.13;;
64353;SDS011;50681;53.334;-6.536;2023-07-31T02:52:40;2.17;;;1.00;;
64353;SDS011;50681;53.334;-6.536;2023-07-31T02:55:06;3.00;;;1.20;;
64353;SDS011;50681;53.334;-6.536;2023-07-31T02:57:31;3.10;;;1.15;;
64353;SDS011;50681;53.334;-6.536;2023-07-31T02:59:57;4.77;;;1.17;;
64353;SDS011;50681;53.334;-6.536;2023-07-31T03:02:22;4.87;;;1.03;;
64353;SDS011;50681;53.334;-6.536;2023-07-31T03:04:48;2.10;;;0.73;;
64353;SDS011;50681;53.334;-6.536;2023-07-31T03:07:13;2.53;;;0.83;;
64353;SDS011;50681;53.334;-6.536;2023-07-31T03:09:39;4.00;;;0.87;;
64353;SDS011;50681;53.334;-6.536;2023-07-31T03:12:04;4.00;;;0.87;;
64353;SDS011;50681;53.334;-6.536;2023-07-31T03:14:30;2.72;;;0.90;;
64353;SDS011;50681;53.334;-6.536;2023-07-31T03:16:55;8.13;;;1.20;;
64353;SDS011;50681;53.334;-6.536;2023-07-31T03:19:21;3.25;;;1.08;;
64353;SDS011;50681;53.334;-6.536;2023-07-31T03:21:47;2.72;;;1.23;;
64353;SDS011;50681;53.334;-6.536;2023-07-31T03:24:12;2.77;;;1.00;;
64353;SDS011;50681;53.334;-6.536;2023-07-31T03:26:37;2.00;;;0.80;;
64353;SDS011;50681;53.334;-6.536;2023-07-31T03:29:06;2.50;;;0.93;;
64353;SDS011;50681;53.334;-6.536;2023-07-31T03:31:31;3.55;;;1.17;;
64353;SDS011;50681;53.334;-6.536;2023-07-31T03:34:05;2.80;;;1.00;;
64353;SDS011;50681;53.334;-6.536;2023-07-31T03:36:30;3.00;;;0.90;;
64353;SDS011;50681;53.334;-6.536;2023-07-31T03:38:56;5.47;;;0.70;;
64353;SDS011;50681;53.334;-6.536;2023-07-31T03:41:22;3.38;;;1.17;;
64353;SDS011;50681;53.334;-6.536;2023-07-31T03:43:49;3.63;;;1.00;;
64353;SDS011;50681;53.334;-6.536;2023-07-31T03:46:16;3.20;;;0.88;;
64353;SDS011;50681;53.334;-6.536;2023-07-31T03:48:42;6.03;;;0.83;;
64353;SDS011;50681;53.334;-6.536;2023-07-31T03:51:07;5.33;;;0.70;;
64353;SDS011;50681;53.334;-6.536;2023-07-31T03:53:33;2.10;;;0.70;;
64353;SDS011;50681;53.334;-6.536;2023-07-31T03:55:58;4.70;;;1.07;;
64353;SDS011;50681;53.334;-6.536;2023-07-31T03:58:23;2.20;;;0.73;;
64353;SDS011;50681;53.334;-6.536;2023-07-31T04:00:49;3.60;;;0.97;;
64353;SDS011;50681;53.334;-6.536;2023-07-31T04:03:14;2.67;;;0.77;;
64353;SDS011;50681;53.334;-6.536;2023-07-31T04:05:41;1.83;;;0.87;;
64353;SDS011;50681;53.334;-6.536;2023-07-31T04:08:06;4.35;;;0.93;;
64353;SDS011;50681;53.334;-6.536;2023-07-31T04:10:31;5.90;;;0.70;;
64353;SDS011;50681;53.334;-6.536;2023-07-31T04:12:58;2.97;;;0.98;;
64353;SDS011;50681;53.334;-6.536;2023-07-31T04:15:24;2.17;;;1.00;;
64353;SDS011;50681;53.334;-6.536;2023-07-31T04:17:49;4.23;;;1.10;;
64353;SDS011;50681;53.334;-6.536;2023-07-31T04:20:15;3.15;;;1.45;;
64353;SDS011;50681;53.334;-6.536;2023-07-31T04:22:41;1.40;;;0.87;;
64353;SDS011;50681;53.334;-6.536;2023-07-31T04:25:06;2.53;;;1.03;;
64353;SDS011;50681;53.334;-6.536;2023-07-31T04:27:33;1.77;;;0.82;;
64353;SDS011;50681;53.334;-6.536;2023-07-31T04:29:58;3.55;;;0.82;;
64353;SDS011;50681;53.334;-6.536;2023-07-31T04:32:24;2.80;;;0.80;;
64353;SDS011;50681;53.334;-6.536;2023-07-31T04:34:49;2.60;;;0.83;;
64353;SDS011;50681;53.334;-6.536;2023-07-31T04:37:15;4.43;;;1.10;;
64353;SDS011;50681;53.334;-6.536;2023-07-31T04:39:40;3.40;;;0.90;;
64353;SDS011;50681;53.334;-6.536;2023-07-31T04:42:05;2.27;;;0.80;;
64353;SDS011;50681;53.334;-6.536;2023-07-31T04:44:31;5.60;;;1.30;;
64353;SDS011;50681;53.334;-6.536;2023-07-31T04:46:56;4.07;;;1.00;;
64353;SDS011;50681;53.334;-6.536;2023-07-31T04:49:23;5.82;;;1.50;;
64353;SDS011;50681;53.334;-6.536;2023-07-31T04:51:48;3.42;;;1.10;;
64353;SDS011;50681;53.334;-6.536;2023-07-31T04:54:14;3.87;;;1.20;;
64353;SDS011;50681;53.334;-6.536;2023-07-31T04:56:42;8.85;;;1.00;;
64353;SDS011;50681;53.334;-6.536;2023-07-31T04:59:07;4.03;;;1.30;;
64353;SDS011;50681;53.334;-6.536;2023-07-31T05:01:33;4.03;;;0.97;;
64353;SDS011;50681;53.334;-6.536;2023-07-31T05:03:58;2.00;;;0.87;;
64353;SDS011;50681;53.334;-6.536;2023-07-31T05:06:24;3.17;;;1.00;;
64353;SDS011;50681;53.334;-6.536;2023-07-31T05:08:49;3.13;;;1.00;;
64353;SDS011;50681;53.334;-6.536;2023-07-31T05:11:14;3.10;;;1.00;;
64353;SDS011;50681;53.334;-6.536;2023-07-31T05:13:40;2.97;;;1.00;;
64353;SDS011;50681;53.334;-6.536;2023-07-31T05:16:05;3.50;;;1.50;;
64353;SDS011;50681;53.334;-6.536;2023-07-31T05:18:31;4.87;;;1.80;;
64353;SDS011;50681;53.334;-6.536;2023-07-31T05:20:56;6.83;;;1.53;;
64353;SDS011;50681;53.334;-6.536;2023-07-31T05:23:22;3.03;;;1.37;;
64353;SDS011;50681;53.334;-6.536;2023-07-31T05:25:47;7.90;;;1.90;;
64353;SDS011;50681;53.334;-6.536;2023-07-31T05:28:12;5.93;;;1.67;;
64353;SDS011;50681;53.334;-6.536;2023-07-31T05:30:38;4.33;;;1.63;;
64353;SDS011;50681;53.334;-6.536;2023-07-31T05:33:03;5.97;;;1.63;;
64353;SDS011;50681;53.334;-6.536;2023-07-31T05:35:29;9.37;;;2.03;;
64353;SDS011;50681;53.334;-6.536;2023-07-31T05:37:54;5.07;;;2.00;;
64353;SDS011;50681;53.334;-6.536;2023-07-31T05:40:20;10.30;;;2.20;;
64353;SDS011;50681;53.334;-6.536;2023-07-31T05:42:45;5.77;;;1.97;;
64353;SDS011;50681;53.334;-6.536;2023-07-31T05:45:10;7.30;;;2.00;;
64353;SDS011;50681;53.334;-6.536;2023-07-31T05:47:36;6.47;;;2.03;;
64353;SDS011;50681;53.334;-6.536;2023-07-31T05:50:01;13.53;;;2.03;;
64353;SDS011;50681;53.334;-6.536;2023-07-31T05:52:27;6.60;;;1.67;;
64353;SDS011;50681;53.334;-6.536;2023-07-31T05:54:54;7.00;;;2.10;;
64353;SDS011;50681;53.334;-6.536;2023-07-31T05:57:19;6.13;;;1.80;;
64353;SDS011;50681;53.334;-6.536;2023-07-31T05:59:45;7.72;;;2.05;;
64353;SDS011;50681;53.334;-6.536;2023-07-31T06:02:10;9.40;;;2.70;;
64353;SDS011;50681;53.334;-6.536;2023-07-31T06:04:36;6.65;;;1.95;;
64353;SDS011;50681;53.334;-6.536;2023-07-31T06:07:01;7.30;;;2.27;;
64353;SDS011;50681;53.334;-6.536;2023-07-31T06:11:53;8.75;;;2.40;;
64353;SDS011;50681;53.334;-6.536;2023-07-31T06:14:19;9.30;;;2.17;;
64353;SDS011;50681;53.334;-6.536;2023-07-31T06:16:44;7.47;;;2.27;;
64353;SDS011;50681;53.334;-6.536;2023-07-31T06:19:10;8.02;;;1.83;;
64353;SDS011;50681;53.334;-6.536;2023-07-31T06:21:38;6.63;;;2.60;;
64353;SDS011;50681;53.334;-6.536;2023-07-31T06:24:05;9.25;;;2.60;;
64353;SDS011;50681;53.334;-6.536;2023-07-31T06:26:31;7.03;;;2.50;;
64353;SDS011;50681;53.334;-6.536;2023-07-31T06:28:56;7.90;;;2.80;;
64353;SDS011;50681;53.334;-6.536;2023-07-31T06:31:22;11.97;;;2.73;;
64353;SDS011;50681;53.334;-6.536;2023-07-31T06:33:51;10.07;;;3.03;;
64353;SDS011;50681;53.334;-6.536;2023-07-31T06:36:17;10.82;;;2.65;;
64353;SDS011;50681;53.334;-6.536;2023-07-31T06:38:42;17.00;;;2.97;;
64353;SDS011;50681;53.334;-6.536;2023-07-31T06:41:08;11.67;;;2.90;;
64353;SDS011;50681;53.334;-6.536;2023-07-31T06:43:34;12.73;;;3.00;;
64353;SDS011;50681;53.334;-6.536;2023-07-31T06:46:04;8.77;;;2.23;;
64353;SDS011;50681;53.334;-6.536;2023-07-31T06:48:30;8.52;;;3.20;;
64353;SDS011;50681;53.334;-6.536;2023-07-31T06:50:56;13.07;;;2.77;;
64353;SDS011;50681;53.334;-6.536;2023-07-31T06:53:21;14.87;;;3.17;;
64353;SDS011;50681;53.334;-6.536;2023-07-31T06:55:46;8.03;;;2.60;;
64353;SDS011;50681;53.334;-6.536;2023-07-31T07:00:38;7.95;;;2.30;;
64353;SDS011;50681;53.334;-6.536;2023-07-31T07:03:04;10.00;;;3.17;;
64353;SDS011;50681;53.334;-6.536;2023-07-31T07:05:29;11.13;;;2.23;;
64353;SDS011;50681;53.334;-6.536;2023-07-31T07:07:55;10.40;;;2.57;;
64353;SDS011;50681;53.334;-6.536;2023-07-31T07:10:20;9.23;;;2.27;;
64353;SDS011;50681;53.334;-6.536;2023-07-31T07:12:45;6.95;;;2.13;;
64353;SDS011;50681;53.334;-6.536;2023-07-31T07:15:11;9.43;;;2.07;;
64353;SDS011;50681;53.334;-6.536;2023-07-31T07:17:36;12.82;;;2.88;;
64353;SDS011;50681;53.334;-6.536;2023-07-31T07:20:02;8.93;;;2.58;;
64353;SDS011;50681;53.334;-6.536;2023-07-31T07:22:28;13.63;;;2.75;;
64353;SDS011;50681;53.334;-6.536;2023-07-31T07:24:54;11.73;;;2.47;;
64353;SDS011;50681;53.334;-6.536;2023-07-31T07:27:20;16.27;;;3.00;;
64353;SDS011;50681;53.334;-6.536;2023-07-31T07:29:45;10.15;;;2.42;;
64353;SDS011;50681;53.334;-6.536;2023-07-31T07:32:11;7.63;;;1.95;;
64353;SDS011;50681;53.334;-6.536;2023-07-31T07:34:37;8.82;;;2.60;;
64353;SDS011;50681;53.334;-6.536;2023-07-31T07:37:02;10.17;;;2.23;;
64353;SDS011;50681;53.334;-6.536;2023-07-31T07:39:28;14.15;;;2.60;;
64353;SDS011;50681;53.334;-6.536;2023-07-31T07:41:54;11.67;;;2.67;;
64353;SDS011;50681;53.334;-6.536;2023-07-31T07:44:19;9.07;;;1.80;;
64353;SDS011;50681;53.334;-6.536;2023-07-31T07:46:45;9.57;;;2.10;;
64353;SDS011;50681;53.334;-6.536;2023-07-31T07:49:10;9.20;;;2.00;;
64353;SDS011;50681;53.334;-6.536;2023-07-31T07:51:35;11.43;;;3.07;;
64353;SDS011;50681;53.334;-6.536;2023-07-31T07:54:01;7.15;;;2.25;;
64353;SDS011;50681;53.334;-6.536;2023-07-31T07:56:27;11.30;;;2.37;;
64353;SDS011;50681;53.334;-6.536;2023-07-31T07:58:53;7.63;;;1.97;;
64353;SDS011;50681;53.334;-6.536;2023-07-31T08:01:19;7.95;;;2.13;;
64353;SDS011;50681;53.334;-6.536;2023-07-31T08:03:46;9.57;;;2.17;;
64353;SDS011;50681;53.334;-6.536;2023-07-31T08:06:12;8.25;;;2.10;;
64353;SDS011;50681;53.334;-6.536;2023-07-31T08:08:38;13.32;;;2.35;;
64353;SDS011;50681;53.334;-6.536;2023-07-31T08:11:04;13.50;;;2.63;;
64353;SDS011;50681;53.334;-6.536;2023-07-31T08:13:29;10.30;;;2.40;;
64353;SDS011;50681;53.334;-6.536;2023-07-31T08:15:55;13.27;;;2.40;;
64353;SDS011;50681;53.334;-6.536;2023-07-31T08:18:21;9.68;;;2.45;;
64353;SDS011;50681;53.334;-6.536;2023-07-31T08:20:46;8.70;;;2.20;;
64353;SDS011;50681;53.334;-6.536;2023-07-31T08:23:12;7.38;;;2.13;;
64353;SDS011;50681;53.334;-6.536;2023-07-31T08:25:37;15.23;;;3.23;;
64353;SDS011;50681;53.334;-6.536;2023-07-31T08:28:03;14.82;;;2.80;;
64353;SDS011;50681;53.334;-6.536;2023-07-31T08:30:30;13.73;;;2.70;;
64353;SDS011;50681;53.334;-6.536;2023-07-31T08:32:55;18.80;;;2.78;;
64353;SDS011;50681;53.334;-6.536;2023-07-31T08:35:23;17.17;;;2.85;;
64353;SDS011;50681;53.334;-6.536;2023-07-31T08:37:50;13.95;;;2.58;;
64353;SDS011;50681;53.334;-6.536;2023-07-31T08:40:17;13.80;;;2.85;;
64353;SDS011;50681;53.334;-6.536;2023-07-31T08:42:46;15.23;;;3.47;;
64353;SDS011;50681;53.334;-6.536;2023-07-31T08:45:13;12.15;;;3.28;;
64353;SDS011;50681;53.334;-6.536;2023-07-31T08:47:47;19.60;;;3.30;;
64353;SDS011;50681;53.334;-6.536;2023-07-31T08:50:14;13.25;;;3.30;;
64353;SDS011;50681;53.334;-6.536;2023-07-31T08:52:41;14.90;;;3.30;;
64353;SDS011;50681;53.334;-6.536;2023-07-31T08:55:07;14.52;;;2.97;;
64353;SDS011;50681;53.334;-6.536;2023-07-31T09:00:03;10.45;;;2.42;;
64353;SDS011;50681;53.334;-6.536;2023-07-31T09:02:56;13.93;;;3.03;;
64353;SDS011;50681;53.334;-6.536;2023-07-31T09:05:30;19.13;;;3.67;;
64353;SDS011;50681;53.334;-6.536;2023-07-31T09:07:59;18.48;;;3.55;;
64353;SDS011;50681;53.334;-6.536;2023-07-31T09:10:31;18.30;;;3.95;;
64353;SDS011;50681;53.334;-6.536;2023-07-31T09:16:28;14.90;;;3.45;;
64353;SDS011;50681;53.334;-6.536;2023-07-31T09:18:57;16.75;;;3.20;;
64353;SDS011;50681;53.334;-6.536;2023-07-31T09:21:26;20.98;;;3.70;;
64353;SDS011;50681;53.334;-6.536;2023-07-31T09:26:28;17.10;;;3.70;;
64353;SDS011;50681;53.334;-6.536;2023-07-31T09:28:54;17.70;;;3.53;;
64353;SDS011;50681;53.334;-6.536;2023-07-31T09:31:38;15.70;;;3.70;;
64353;SDS011;50681;53.334;-6.536;2023-07-31T09:34:07;22.90;;;3.63;;
64353;SDS011;50681;53.334;-6.536;2023-07-31T09:36:32;13.13;;;3.10;;
64353;SDS011;50681;53.334;-6.536;2023-07-31T09:39:05;17.33;;;3.00;;
64353;SDS011;50681;53.334;-6.536;2023-07-31T09:41:47;17.52;;;3.35;;
64353;SDS011;50681;53.334;-6.536;2023-07-31T09:44:19;19.83;;;3.58;;
64353;SDS011;50681;53.334;-6.536;2023-07-31T09:46:44;14.32;;;2.88;;
64353;SDS011;50681;53.334;-6.536;2023-07-31T09:49:10;17.15;;;3.33;;
64353;SDS011;50681;53.334;-6.536;2023-07-31T09:51:41;13.43;;;3.47;;
64353;SDS011;50681;53.334;-6.536;2023-07-31T09:54:11;19.70;;;5.78;;
64353;SDS011;50681;53.334;-6.536;2023-07-31T09:56:47;26.92;;;9.25;;
64353;SDS011;50681;53.334;-6.536;2023-07-31T09:59:14;22.38;;;6.82;;
64353;SDS011;50681;53.334;-6.536;2023-07-31T10:01:41;14.93;;;3.55;;
64353;SDS011;50681;53.334;-6.536;2023-07-31T10:04:11;18.85;;;5.30;;
64353;SDS011;50681;53.334;-6.536;2023-07-31T10:06:37;16.15;;;3.80;;
64353;SDS011;50681;53.334;-6.536;2023-07-31T10:09:08;17.98;;;3.60;;
64353;SDS011;50681;53.334;-6.536;2023-07-31T10:11:41;15.90;;;3.33;;
64353;SDS011;50681;53.334;-6.536;2023-07-31T10:14:10;17.23;;;3.60;;
64353;SDS011;50681;53.334;-6.536;2023-07-31T10:16:37;19.10;;;5.45;;
64353;SDS011;50681;53.334;-6.536;2023-07-31T10:19:04;19.55;;;5.05;;
64353;SDS011;50681;53.334;-6.536;2023-07-31T10:21:31;13.23;;;4.55;;
64353;SDS011;50681;53.334;-6.536;2023-07-31T10:24:01;24.83;;;7.35;;
64353;SDS011;50681;53.334;-6.536;2023-07-31T10:26:28;21.25;;;4.50;;
64353;SDS011;50681;53.334;-6.536;2023-07-31T10:28:55;15.48;;;5.38;;
64353;SDS011;50681;53.334;-6.536;2023-07-31T10:31:22;18.33;;;4.32;;
64353;SDS011;50681;53.334;-6.536;2023-07-31T10:33:49;21.02;;;4.47;;
64353;SDS011;50681;53.334;-6.536;2023-07-31T10:36:19;18.52;;;5.30;;
64353;SDS011;50681;53.334;-6.536;2023-07-31T10:38:45;16.75;;;4.60;;
64353;SDS011;50681;53.334;-6.536;2023-07-31T10:41:14;22.17;;;3.58;;
64353;SDS011;50681;53.334;-6.536;2023-07-31T10:43:39;16.52;;;3.22;;
64353;SDS011;50681;53.334;-6.536;2023-07-31T10:46:08;13.23;;;3.17;;
64353;SDS011;50681;53.334;-6.536;2023-07-31T10:48:36;19.08;;;3.40;;
64353;SDS011;50681;53.334;-6.536;2023-07-31T10:51:06;12.68;;;3.20;;
64353;SDS011;50681;53.334;-6.536;2023-07-31T10:53:35;11.00;;;2.72;;
64353;SDS011;50681;53.334;-6.536;2023-07-31T10:56:02;15.30;;;3.80;;
64353;SDS011;50681;53.334;-6.536;2023-07-31T10:58:29;19.65;;;3.63;;
64353;SDS011;50681;53.334;-6.536;2023-07-31T11:01:02;13.05;;;2.88;;
64353;SDS011;50681;53.334;-6.536;2023-07-31T11:03:48;13.23;;;2.80;;
64353;SDS011;50681;53.334;-6.536;2023-07-31T11:06:17;12.05;;;3.30;;
64353;SDS011;50681;53.334;-6.536;2023-07-31T11:08:43;16.75;;;3.08;;
64353;SDS011;50681;53.334;-6.536;2023-07-31T11:11:10;20.00;;;3.53;;
64353;SDS011;50681;53.334;-6.536;2023-07-31T11:16:20;18.08;;;3.75;;
64353;SDS011;50681;53.334;-6.536;2023-07-31T11:18:48;20.33;;;3.20;;
64353;SDS011;50681;53.334;-6.536;2023-07-31T11:23:40;13.57;;;3.70;;
64353;SDS011;50681;53.334;-6.536;2023-07-31T11:26:07;19.00;;;3.10;;
64353;SDS011;50681;53.334;-6.536;2023-07-31T11:28:33;18.52;;;3.25;;
64353;SDS011;50681;53.334;-6.536;2023-07-31T11:31:00;11.55;;;3.15;;
64353;SDS011;50681;53.334;-6.536;2023-07-31T11:33:26;14.55;;;3.38;;
64353;SDS011;50681;53.334;-6.536;2023-07-31T11:35:52;11.75;;;3.10;;
64353;SDS011;50681;53.334;-6.536;2023-07-31T11:38:27;12.83;;;2.83;;
64353;SDS011;50681;53.334;-6.536;2023-07-31T11:40:57;13.98;;;3.03;;
64353;SDS011;50681;53.334;-6.536;2023-07-31T11:43:24;11.30;;;2.70;;
64353;SDS011;50681;53.334;-6.536;2023-07-31T11:45:52;12.07;;;2.95;;
64353;SDS011;50681;53.334;-6.536;2023-07-31T11:48:19;8.00;;;2.72;;
64353;SDS011;50681;53.334;-6.536;2023-07-31T11:50:57;7.38;;;1.85;;
64353;SDS011;50681;53.334;-6.536;2023-07-31T11:53:26;6.15;;;1.45;;
64353;SDS011;50681;53.334;-6.536;2023-07-31T11:55:57;6.70;;;2.00;;
64353;SDS011;50681;53.334;-6.536;2023-07-31T11:58:24;9.88;;;2.72;;
64353;SDS011;50681;53.334;-6.536;2023-07-31T12:00:50;5.60;;;1.60;;
64353;SDS011;50681;53.334;-6.536;2023-07-31T12:03:16;6.40;;;2.28;;
64353;SDS011;50681;53.334;-6.536;2023-07-31T12:08:09;7.55;;;1.98;;
64353;SDS011;50681;53.334;-6.536;2023-07-31T12:10:38;8.38;;;2.25;;
64353;SDS011;50681;53.334;-6.536;2023-07-31T12:13:12;5.15;;;1.83;;
64353;SDS011;50681;53.334;-6.536;2023-07-31T12:15:49;3.53;;;1.17;;
64353;SDS011;50681;53.334;-6.536;2023-07-31T12:18:20;5.65;;;1.90;;
64353;SDS011;50681;53.334;-6.536;2023-07-31T12:20:47;7.30;;;1.98;;
64353;SDS011;50681;53.334;-6.536;2023-07-31T12:23:21;7.57;;;1.67;;
64353;SDS011;50681;53.334;-6.536;2023-07-31T12:28:42;9.40;;;1.85;;
64353;SDS011;50681;53.334;-6.536;2023-07-31T12:31:09;10.20;;;2.42;;
64353;SDS011;50681;53.334;-6.536;2023-07-31T12:33:39;6.13;;;1.90;;
64353;SDS011;50681;53.334;-6.536;2023-07-31T12:36:12;4.55;;;1.67;;
64353;SDS011;50681;53.334;-6.536;2023-07-31T12:38:40;9.27;;;2.17;;
64353;SDS011;50681;53.334;-6.536;2023-07-31T12:41:06;7.55;;;1.98;;
64353;SDS011;50681;53.334;-6.536;2023-07-31T12:43:32;7.10;;;1.80;;
64353;SDS011;50681;53.334;-6.536;2023-07-31T12:48:24;6.75;;;1.85;;
64353;SDS011;50681;53.334;-6.536;2023-07-31T12:50:49;9.07;;;2.30;;
64353;SDS011;50681;53.334;-6.536;2023-07-31T12:53:15;8.45;;;2.45;;
64353;SDS011;50681;53.334;-6.536;2023-07-31T12:55:41;8.13;;;2.00;;
64353;SDS011;50681;53.334;-6.536;2023-07-31T12:58:06;10.02;;;2.83;;
64353;SDS011;50681;53.334;-6.536;2023-07-31T13:00:32;7.73;;;1.87;;
64353;SDS011;50681;53.334;-6.536;2023-07-31T13:02:57;7.75;;;1.73;;
64353;SDS011;50681;53.334;-6.536;2023-07-31T13:07:49;8.43;;;2.35;;
64353;SDS011;50681;53.334;-6.536;2023-07-31T13:10:14;9.63;;;2.13;;
64353;SDS011;50681;53.334;-6.536;2023-07-31T13:12:40;7.27;;;2.17;;
64353;SDS011;50681;53.334;-6.536;2023-07-31T13:15:05;6.55;;;2.40;;
64353;SDS011;50681;53.334;-6.536;2023-07-31T13:17:32;7.68;;;2.28;;
64353;SDS011;50681;53.334;-6.536;2023-07-31T13:19:57;7.30;;;2.08;;
64353;SDS011;50681;53.334;-6.536;2023-07-31T13:22:23;13.75;;;2.58;;
64353;SDS011;50681;53.334;-6.536;2023-07-31T13:24:49;11.77;;;2.45;;
64353;SDS011;50681;53.334;-6.536;2023-07-31T13:27:15;9.93;;;2.37;;
64353;SDS011;50681;53.334;-6.536;2023-07-31T13:29:45;7.85;;;2.35;;
64353;SDS011;50681;53.334;-6.536;2023-07-31T13:32:11;8.98;;;2.30;;
64353;SDS011;50681;53.334;-6.536;2023-07-31T13:34:36;12.63;;;3.22;;
64353;SDS011;50681;53.334;-6.536;2023-07-31T13:37:02;5.47;;;2.00;;
64353;SDS011;50681;53.334;-6.536;2023-07-31T13:39:28;12.70;;;2.75;;
64353;SDS011;50681;53.334;-6.536;2023-07-31T13:41:53;8.30;;;2.03;;
64353;SDS011;50681;53.334;-6.536;2023-07-31T13:44:19;7.47;;;2.05;;
64353;SDS011;50681;53.334;-6.536;2023-07-31T13:46:45;9.57;;;2.50;;
64353;SDS011;50681;53.334;-6.536;2023-07-31T13:49:12;12.98;;;2.40;;
64353;SDS011;50681;53.334;-6.536;2023-07-31T13:51:37;10.80;;;2.50;;
64353;SDS011;50681;53.334;-6.536;2023-07-31T13:54:04;11.43;;;2.28;;
64353;SDS011;50681;53.334;-6.536;2023-07-31T13:56:31;8.80;;;2.53;;
64353;SDS011;50681;53.334;-6.536;2023-07-31T13:58:56;4.15;;;1.55;;
64353;SDS011;50681;53.334;-6.536;2023-07-31T14:01:22;6.95;;;1.98;;
64353;SDS011;50681;53.334;-6.536;2023-07-31T14:03:48;6.65;;;2.30;;
64353;SDS011;50681;53.334;-6.536;2023-07-31T14:06:14;8.73;;;2.40;;
64353;SDS011;50681;53.334;-6.536;2023-07-31T14:08:39;11.18;;;2.97;;
64353;SDS011;50681;53.334;-6.536;2023-07-31T14:11:05;8.53;;;2.17;;
64353;SDS011;50681;53.334;-6.536;2023-07-31T14:13:30;7.53;;;2.30;;
64353;SDS011;50681;53.334;-6.536;2023-07-31T14:15:55;9.17;;;2.77;;
64353;SDS011;50681;53.334;-6.536;2023-07-31T14:18:21;5.47;;;2.27;;
64353;SDS011;50681;53.334;-6.536;2023-07-31T14:20:46;13.02;;;2.72;;
64353;SDS011;50681;53.334;-6.536;2023-07-31T14:23:12;8.85;;;2.33;;
64353;SDS011;50681;53.334;-6.536;2023-07-31T14:25:37;7.05;;;2.05;;
64353;SDS011;50681;53.334;-6.536;2023-07-31T14:28:04;8.07;;;2.37;;
64353;SDS011;50681;53.334;-6.536;2023-07-31T14:30:30;7.03;;;1.63;;
64353;SDS011;50681;53.334;-6.536;2023-07-31T14:32:55;9.13;;;1.95;;
64353;SDS011;50681;53.334;-6.536;2023-07-31T14:35:21;5.00;;;1.53;;
64353;SDS011;50681;53.334;-6.536;2023-07-31T14:37:46;6.72;;;1.70;;
64353;SDS011;50681;53.334;-6.536;2023-07-31T14:40:12;4.90;;;1.20;;
64353;SDS011;50681;53.334;-6.536;2023-07-31T14:42:38;3.08;;;1.20;;
64353;SDS011;50681;53.334;-6.536;2023-07-31T14:45:05;6.45;;;1.67;;
64353;SDS011;50681;53.334;-6.536;2023-07-31T14:47:33;4.32;;;1.48;;
64353;SDS011;50681;53.334;-6.536;2023-07-31T14:50:02;9.85;;;1.90;;
64353;SDS011;50681;53.334;-6.536;2023-07-31T14:52:28;4.57;;;1.35;;
64353;SDS011;50681;53.334;-6.536;2023-07-31T14:54:54;6.35;;;1.85;;
64353;SDS011;50681;53.334;-6.536;2023-07-31T14:57:19;8.57;;;2.17;;
64353;SDS011;50681;53.334;-6.536;2023-07-31T14:59:45;6.78;;;1.80;;
64353;SDS011;50681;53.334;-6.536;2023-07-31T15:02:10;7.72;;;1.92;;
64353;SDS011;50681;53.334;-6.536;2023-07-31T15:04:36;8.82;;;2.17;;
64353;SDS011;50681;53.334;-6.536;2023-07-31T15:07:01;7.65;;;1.98;;
64353;SDS011;50681;53.334;-6.536;2023-07-31T15:09:27;9.52;;;2.20;;